sensor_id;sensor_type;location;lat;lon;timestamp;P1;durP1;ratioP1;P2;durP2;ratioP2
5199;SDS011;2619;47.868;11.892;2022-09-09T00:01:54;4.10;;;3.53;;
5199;SDS011;2619;47.868;11.892;2022-09-09T00:05:23;4.50;;;3.50;;
5199;SDS011;2619;47.868;11.892;2022-09-09T00:07:53;4.50;;;2.90;;
5199;SDS011;2619;47.868;11.892;2022-09-09T00:15:26;5.33;;;3.50;;
5199;SDS011;2619;47.868;11.892;2022-09-09T00:18:05;5.27;;;3.43;;
5199;SDS011;2619;47.868;11.892;2022-09-09T00:25:50;4.83;;;3.90;;
5199;SDS011;2619;47.868;11.892;2022-09-09T00:28:41;4.80;;;3.93;;
5199;SDS011;2619;47.868;11.892;2022-09-09T00:31:23;4.43;;;3.50;;
5199;SDS011;2619;47.868;11.892;2022-09-09T00:33:52;4.43;;;3.40;;
5199;SDS011;2619;47.868;11.892;2022-09-09T00:36:21;6.57;;;3.77;;
5199;SDS011;2619;47.868;11.892;2022-09-09T00:39:00;4.77;;;4.17;;
5199;SDS011;2619;47.868;11.892;2022-09-09T00:44:30;6.97;;;3.70;;
5199;SDS011;2619;47.868;11.892;2022-09-09T00:49:57;4.13;;;3.73;;
5199;SDS011;2619;47.868;11.892;2022-09-09T00:55:41;5.33;;;3.17;;
5199;SDS011;2619;47.868;11.892;2022-09-09T00:58:17;3.60;;;3.17;;
5199;SDS011;2619;47.868;11.892;2022-09-09T01:00:49;4.20;;;2.73;;
5199;SDS011;2619;47.868;11.892;2022-09-09T01:08:35;3.80;;;3.20;;
5199;SDS011;2619;47.868;11.892;2022-09-09T01:11:19;3.37;;;2.87;;
5199;SDS011;2619;47.868;11.892;2022-09-09T01:13:47;3.50;;;2.77;;
5199;SDS011;2619;47.868;11.892;2022-09-09T01:16:18;3.30;;;2.73;;
5199;SDS011;2619;47.868;11.892;2022-09-09T01:18:45;4.53;;;3.13;;
5199;SDS011;2619;47.868;11.892;2022-09-09T01:26:39;4.43;;;3.23;;
5199;SDS011;2619;47.868;11.892;2022-09-09T01:29:08;4.20;;;2.90;;
5199;SDS011;2619;47.868;11.892;2022-09-09T01:31:38;3.90;;;3.03;;
5199;SDS011;2619;47.868;11.892;2022-09-09T01:34:12;3.77;;;3.00;;
5199;SDS011;2619;47.868;11.892;2022-09-09T01:36:44;4.30;;;3.00;;
5199;SDS011;2619;47.868;11.892;2022-09-09T01:39:23;7.13;;;3.43;;
5199;SDS011;2619;47.868;11.892;2022-09-09T01:41:50;3.90;;;2.60;;
5199;SDS011;2619;47.868;11.892;2022-09-09T01:44:15;4.10;;;2.47;;
5199;SDS011;2619;47.868;11.892;2022-09-09T01:46:43;3.00;;;2.00;;
5199;SDS011;2619;47.868;11.892;2022-09-09T01:49:08;5.07;;;2.00;;
5199;SDS011;2619;47.868;11.892;2022-09-09T01:51:35;3.73;;;2.00;;
5199;SDS011;2619;47.868;11.892;2022-09-09T01:54:02;3.00;;;2.10;;
5199;SDS011;2619;47.868;11.892;2022-09-09T02:02:05;4.37;;;2.10;;
5199;SDS011;2619;47.868;11.892;2022-09-09T02:04:36;4.00;;;1.87;;
5199;SDS011;2619;47.868;11.892;2022-09-09T02:07:13;2.83;;;1.87;;
5199;SDS011;2619;47.868;11.892;2022-09-09T02:12:35;4.97;;;1.60;;
5199;SDS011;2619;47.868;11.892;2022-09-09T02:15:07;3.27;;;1.90;;
5199;SDS011;2619;47.868;11.892;2022-09-09T02:17:43;2.37;;;1.70;;
5199;SDS011;2619;47.868;11.892;2022-09-09T02:20:12;4.07;;;1.90;;
5199;SDS011;2619;47.868;11.892;2022-09-09T02:22:39;3.93;;;1.60;;
5199;SDS011;2619;47.868;11.892;2022-09-09T02:25:09;3.10;;;1.47;;
5199;SDS011;2619;47.868;11.892;2022-09-09T02:27:40;3.23;;;1.60;;
5199;SDS011;2619;47.868;11.892;2022-09-09T02:30:08;2.70;;;1.20;;
5199;SDS011;2619;47.868;11.892;2022-09-09T02:32:35;3.97;;;1.40;;
5199;SDS011;2619;47.868;11.892;2022-09-09T02:35:08;6.93;;;1.60;;
5199;SDS011;2619;47.868;11.892;2022-09-09T02:37:37;3.07;;;1.40;;
5199;SDS011;2619;47.868;11.892;2022-09-09T02:40:05;3.27;;;1.00;;
5199;SDS011;2619;47.868;11.892;2022-09-09T02:42:34;2.90;;;1.40;;
5199;SDS011;2619;47.868;11.892;2022-09-09T02:45:11;2.07;;;1.17;;
5199;SDS011;2619;47.868;11.892;2022-09-09T02:47:51;4.07;;;1.77;;
5199;SDS011;2619;47.868;11.892;2022-09-09T02:53:24;2.80;;;1.53;;
5199;SDS011;2619;47.868;11.892;2022-09-09T02:56:04;2.87;;;1.50;;
5199;SDS011;2619;47.868;11.892;2022-09-09T02:58:34;5.17;;;1.20;;
5199;SDS011;2619;47.868;11.892;2022-09-09T03:01:01;3.27;;;1.40;;
5199;SDS011;2619;47.868;11.892;2022-09-09T03:03:27;2.00;;;1.07;;
5199;SDS011;2619;47.868;11.892;2022-09-09T03:05:54;2.50;;;1.40;;
5199;SDS011;2619;47.868;11.892;2022-09-09T03:08:19;2.43;;;1.10;;
5199;SDS011;2619;47.868;11.892;2022-09-09T03:10:45;3.20;;;1.50;;
5199;SDS011;2619;47.868;11.892;2022-09-09T03:13:10;4.80;;;1.20;;
5199;SDS011;2619;47.868;11.892;2022-09-09T03:15:37;3.00;;;1.27;;
5199;SDS011;2619;47.868;11.892;2022-09-09T03:18:03;3.67;;;1.60;;
5199;SDS011;2619;47.868;11.892;2022-09-09T03:20:29;3.33;;;1.80;;
5199;SDS011;2619;47.868;11.892;2022-09-09T03:22:55;4.70;;;1.67;;
5199;SDS011;2619;47.868;11.892;2022-09-09T03:25:22;2.70;;;1.60;;
5199;SDS011;2619;47.868;11.892;2022-09-09T03:27:51;5.60;;;1.70;;
5199;SDS011;2619;47.868;11.892;2022-09-09T03:30:20;2.20;;;1.40;;
5199;SDS011;2619;47.868;11.892;2022-09-09T03:32:49;3.57;;;1.90;;
5199;SDS011;2619;47.868;11.892;2022-09-09T03:35:14;5.10;;;2.00;;
5199;SDS011;2619;47.868;11.892;2022-09-09T03:37:40;2.20;;;1.60;;
5199;SDS011;2619;47.868;11.892;2022-09-09T03:40:06;3.10;;;1.83;;
5199;SDS011;2619;47.868;11.892;2022-09-09T03:42:34;3.17;;;1.90;;
5199;SDS011;2619;47.868;11.892;2022-09-09T03:45:02;4.13;;;2.03;;
5199;SDS011;2619;47.868;11.892;2022-09-09T03:47:31;4.07;;;1.73;;
5199;SDS011;2619;47.868;11.892;2022-09-09T03:49:57;4.13;;;1.73;;
5199;SDS011;2619;47.868;11.892;2022-09-09T03:52:22;4.73;;;2.13;;
5199;SDS011;2619;47.868;11.892;2022-09-09T03:54:51;3.07;;;1.67;;
5199;SDS011;2619;47.868;11.892;2022-09-09T03:57:17;3.13;;;1.83;;
5199;SDS011;2619;47.868;11.892;2022-09-09T03:59:43;3.10;;;2.00;;
5199;SDS011;2619;47.868;11.892;2022-09-09T04:02:09;3.87;;;2.30;;
5199;SDS011;2619;47.868;11.892;2022-09-09T04:04:35;3.50;;;1.60;;
5199;SDS011;2619;47.868;11.892;2022-09-09T04:07:01;4.07;;;1.93;;
5199;SDS011;2619;47.868;11.892;2022-09-09T04:09:26;3.37;;;1.70;;
5199;SDS011;2619;47.868;11.892;2022-09-09T04:11:52;8.17;;;2.30;;
5199;SDS011;2619;47.868;11.892;2022-09-09T04:14:18;5.50;;;2.53;;
5199;SDS011;2619;47.868;11.892;2022-09-09T04:16:44;4.03;;;2.50;;
5199;SDS011;2619;47.868;11.892;2022-09-09T04:19:11;3.30;;;2.40;;
5199;SDS011;2619;47.868;11.892;2022-09-09T04:21:38;4.77;;;2.70;;
5199;SDS011;2619;47.868;11.892;2022-09-09T04:24:05;3.90;;;2.90;;
5199;SDS011;2619;47.868;11.892;2022-09-09T04:26:32;3.40;;;2.07;;
5199;SDS011;2619;47.868;11.892;2022-09-09T04:28:58;3.10;;;2.33;;
5199;SDS011;2619;47.868;11.892;2022-09-09T04:31:23;3.20;;;2.47;;
5199;SDS011;2619;47.868;11.892;2022-09-09T04:33:49;4.03;;;2.10;;
5199;SDS011;2619;47.868;11.892;2022-09-09T04:36:15;3.83;;;2.40;;
5199;SDS011;2619;47.868;11.892;2022-09-09T04:38:41;3.17;;;1.93;;
5199;SDS011;2619;47.868;11.892;2022-09-09T04:41:09;4.27;;;2.20;;
5199;SDS011;2619;47.868;11.892;2022-09-09T04:43:36;4.47;;;3.27;;
5199;SDS011;2619;47.868;11.892;2022-09-09T04:46:02;4.20;;;2.93;;
5199;SDS011;2619;47.868;11.892;2022-09-09T04:48:28;13.07;;;9.53;;
5199;SDS011;2619;47.868;11.892;2022-09-09T04:50:58;9.93;;;7.80;;
5199;SDS011;2619;47.868;11.892;2022-09-09T04:53:25;7.80;;;6.60;;
5199;SDS011;2619;47.868;11.892;2022-09-09T04:55:52;7.50;;;6.77;;
5199;SDS011;2619;47.868;11.892;2022-09-09T04:58:26;4.20;;;2.90;;
5199;SDS011;2619;47.868;11.892;2022-09-09T05:00:51;5.40;;;4.30;;
5199;SDS011;2619;47.868;11.892;2022-09-09T05:03:17;3.90;;;2.80;;
5199;SDS011;2619;47.868;11.892;2022-09-09T05:05:44;3.47;;;2.27;;
5199;SDS011;2619;47.868;11.892;2022-09-09T05:08:09;2.63;;;2.17;;
5199;SDS011;2619;47.868;11.892;2022-09-09T05:10:36;6.30;;;2.73;;
5199;SDS011;2619;47.868;11.892;2022-09-09T05:13:03;5.83;;;2.60;;
5199;SDS011;2619;47.868;11.892;2022-09-09T05:15:30;4.70;;;2.77;;
5199;SDS011;2619;47.868;11.892;2022-09-09T05:17:57;5.63;;;2.57;;
5199;SDS011;2619;47.868;11.892;2022-09-09T05:20:24;3.60;;;2.13;;
5199;SDS011;2619;47.868;11.892;2022-09-09T05:22:52;4.83;;;2.47;;
5199;SDS011;2619;47.868;11.892;2022-09-09T05:25:19;7.07;;;2.67;;
5199;SDS011;2619;47.868;11.892;2022-09-09T05:27:44;4.17;;;3.27;;
5199;SDS011;2619;47.868;11.892;2022-09-09T05:30:10;4.50;;;2.97;;
5199;SDS011;2619;47.868;11.892;2022-09-09T05:32:36;4.50;;;2.90;;
5199;SDS011;2619;47.868;11.892;2022-09-09T05:35:01;4.83;;;2.93;;
5199;SDS011;2619;47.868;11.892;2022-09-09T05:37:27;5.43;;;3.23;;
5199;SDS011;2619;47.868;11.892;2022-09-09T05:39:55;6.47;;;2.43;;
5199;SDS011;2619;47.868;11.892;2022-09-09T05:42:20;8.03;;;3.20;;
5199;SDS011;2619;47.868;11.892;2022-09-09T05:44:46;4.20;;;3.30;;
5199;SDS011;2619;47.868;11.892;2022-09-09T05:47:11;4.07;;;3.00;;
5199;SDS011;2619;47.868;11.892;2022-09-09T05:49:37;3.67;;;2.40;;
5199;SDS011;2619;47.868;11.892;2022-09-09T05:52:03;7.67;;;2.93;;
5199;SDS011;2619;47.868;11.892;2022-09-09T05:54:29;10.27;;;8.93;;
5199;SDS011;2619;47.868;11.892;2022-09-09T05:56:55;13.60;;;11.20;;
5199;SDS011;2619;47.868;11.892;2022-09-09T05:59:20;6.87;;;6.20;;
5199;SDS011;2619;47.868;11.892;2022-09-09T06:01:48;4.50;;;3.47;;
5199;SDS011;2619;47.868;11.892;2022-09-09T06:04:13;7.23;;;3.70;;
5199;SDS011;2619;47.868;11.892;2022-09-09T06:06:39;5.43;;;3.10;;
5199;SDS011;2619;47.868;11.892;2022-09-09T06:09:07;4.43;;;2.40;;
5199;SDS011;2619;47.868;11.892;2022-09-09T06:11:35;3.20;;;1.70;;
5199;SDS011;2619;47.868;11.892;2022-09-09T06:14:02;4.50;;;1.93;;
5199;SDS011;2619;47.868;11.892;2022-09-09T06:16:28;5.13;;;2.30;;
5199;SDS011;2619;47.868;11.892;2022-09-09T06:18:55;4.10;;;1.90;;
5199;SDS011;2619;47.868;11.892;2022-09-09T06:21:22;7.30;;;2.40;;
5199;SDS011;2619;47.868;11.892;2022-09-09T06:23:49;3.40;;;1.90;;
5199;SDS011;2619;47.868;11.892;2022-09-09T06:26:22;3.97;;;2.03;;
5199;SDS011;2619;47.868;11.892;2022-09-09T06:28:50;3.60;;;2.07;;
5199;SDS011;2619;47.868;11.892;2022-09-09T06:31:18;2.87;;;1.60;;
5199;SDS011;2619;47.868;11.892;2022-09-09T06:33:47;3.37;;;1.60;;
5199;SDS011;2619;47.868;11.892;2022-09-09T06:38:40;4.83;;;1.33;;
5199;SDS011;2619;47.868;11.892;2022-09-09T06:41:07;3.13;;;1.33;;
5199;SDS011;2619;47.868;11.892;2022-09-09T06:43:34;3.77;;;1.33;;
5199;SDS011;2619;47.868;11.892;2022-09-09T06:46:01;3.93;;;1.70;;
5199;SDS011;2619;47.868;11.892;2022-09-09T06:48:33;3.30;;;1.30;;
5199;SDS011;2619;47.868;11.892;2022-09-09T06:51:00;3.37;;;1.23;;
5199;SDS011;2619;47.868;11.892;2022-09-09T06:53:27;4.40;;;1.80;;
5199;SDS011;2619;47.868;11.892;2022-09-09T06:55:52;4.73;;;2.90;;
5199;SDS011;2619;47.868;11.892;2022-09-09T06:58:19;2.90;;;1.70;;
5199;SDS011;2619;47.868;11.892;2022-09-09T07:00:47;3.13;;;1.40;;
5199;SDS011;2619;47.868;11.892;2022-09-09T07:03:12;2.67;;;1.20;;
5199;SDS011;2619;47.868;11.892;2022-09-09T07:05:38;3.13;;;1.23;;
5199;SDS011;2619;47.868;11.892;2022-09-09T07:08:04;6.47;;;2.00;;
5199;SDS011;2619;47.868;11.892;2022-09-09T07:10:30;3.30;;;1.30;;
5199;SDS011;2619;47.868;11.892;2022-09-09T07:12:56;3.07;;;1.40;;
5199;SDS011;2619;47.868;11.892;2022-09-09T07:15:22;2.57;;;1.33;;
5199;SDS011;2619;47.868;11.892;2022-09-09T07:17:48;2.47;;;1.27;;
5199;SDS011;2619;47.868;11.892;2022-09-09T07:20:14;3.03;;;1.40;;
5199;SDS011;2619;47.868;11.892;2022-09-09T07:22:40;4.33;;;1.10;;
5199;SDS011;2619;47.868;11.892;2022-09-09T07:25:06;3.00;;;1.50;;
5199;SDS011;2619;47.868;11.892;2022-09-09T07:27:32;2.13;;;1.07;;
5199;SDS011;2619;47.868;11.892;2022-09-09T07:29:58;2.27;;;0.90;;
5199;SDS011;2619;47.868;11.892;2022-09-09T07:32:24;2.90;;;1.20;;
5199;SDS011;2619;47.868;11.892;2022-09-09T07:34:50;2.53;;;1.00;;
5199;SDS011;2619;47.868;11.892;2022-09-09T07:37:16;4.30;;;1.63;;
5199;SDS011;2619;47.868;11.892;2022-09-09T07:39:43;1.87;;;1.00;;
5199;SDS011;2619;47.868;11.892;2022-09-09T07:42:09;5.10;;;1.33;;
5199;SDS011;2619;47.868;11.892;2022-09-09T07:44:36;5.43;;;1.60;;
5199;SDS011;2619;47.868;11.892;2022-09-09T07:47:04;3.97;;;1.17;;
5199;SDS011;2619;47.868;11.892;2022-09-09T07:49:30;3.37;;;1.07;;
5199;SDS011;2619;47.868;11.892;2022-09-09T07:51:56;3.30;;;1.20;;
5199;SDS011;2619;47.868;11.892;2022-09-09T07:54:22;1.90;;;1.00;;
5199;SDS011;2619;47.868;11.892;2022-09-09T07:56:48;2.77;;;1.00;;
5199;SDS011;2619;47.868;11.892;2022-09-09T07:59:15;2.53;;;1.20;;
5199;SDS011;2619;47.868;11.892;2022-09-09T08:01:45;3.47;;;1.10;;
5199;SDS011;2619;47.868;11.892;2022-09-09T08:04:13;4.93;;;1.37;;
5199;SDS011;2619;47.868;11.892;2022-09-09T08:06:42;2.50;;;1.40;;
5199;SDS011;2619;47.868;11.892;2022-09-09T08:09:35;3.73;;;1.60;;
5199;SDS011;2619;47.868;11.892;2022-09-09T08:12:01;3.77;;;1.70;;
5199;SDS011;2619;47.868;11.892;2022-09-09T08:14:27;3.93;;;1.80;;
5199;SDS011;2619;47.868;11.892;2022-09-09T08:16:52;3.73;;;1.73;;
5199;SDS011;2619;47.868;11.892;2022-09-09T08:19:19;2.90;;;1.70;;
5199;SDS011;2619;47.868;11.892;2022-09-09T08:21:44;3.30;;;1.30;;
5199;SDS011;2619;47.868;11.892;2022-09-09T08:24:11;3.93;;;1.07;;
5199;SDS011;2619;47.868;11.892;2022-09-09T08:26:43;3.63;;;1.77;;
5199;SDS011;2619;47.868;11.892;2022-09-09T08:29:11;2.43;;;1.27;;
5199;SDS011;2619;47.868;11.892;2022-09-09T08:31:42;4.07;;;1.70;;
5199;SDS011;2619;47.868;11.892;2022-09-09T08:34:08;1.97;;;0.90;;
5199;SDS011;2619;47.868;11.892;2022-09-09T08:36:37;3.30;;;1.17;;
5199;SDS011;2619;47.868;11.892;2022-09-09T08:39:05;3.50;;;1.20;;
5199;SDS011;2619;47.868;11.892;2022-09-09T08:52:29;3.13;;;1.20;;
5199;SDS011;2619;47.868;11.892;2022-09-09T08:58:12;2.20;;;1.37;;
5199;SDS011;2619;47.868;11.892;2022-09-09T09:11:23;3.17;;;1.73;;
5199;SDS011;2619;47.868;11.892;2022-09-09T09:13:52;2.57;;;1.30;;
5199;SDS011;2619;47.868;11.892;2022-09-09T09:18:57;2.10;;;1.10;;
5199;SDS011;2619;47.868;11.892;2022-09-09T09:21:42;2.30;;;1.40;;
5199;SDS011;2619;47.868;11.892;2022-09-09T09:27:13;3.87;;;1.33;;
5199;SDS011;2619;47.868;11.892;2022-09-09T09:29:58;3.80;;;1.50;;
5199;SDS011;2619;47.868;11.892;2022-09-09T09:32:25;2.90;;;1.60;;
5199;SDS011;2619;47.868;11.892;2022-09-09T09:34:58;2.97;;;1.37;;
5199;SDS011;2619;47.868;11.892;2022-09-09T09:37:29;4.77;;;1.60;;
5199;SDS011;2619;47.868;11.892;2022-09-09T09:40:13;3.23;;;1.47;;
5199;SDS011;2619;47.868;11.892;2022-09-09T09:43:01;3.77;;;1.50;;
5199;SDS011;2619;47.868;11.892;2022-09-09T09:47:59;2.30;;;1.20;;
5199;SDS011;2619;47.868;11.892;2022-09-09T09:50:25;2.40;;;1.43;;
5199;SDS011;2619;47.868;11.892;2022-09-09T09:52:57;2.30;;;1.30;;
5199;SDS011;2619;47.868;11.892;2022-09-09T09:55:25;3.73;;;1.50;;
5199;SDS011;2619;47.868;11.892;2022-09-09T09:57:52;2.30;;;1.10;;
5199;SDS011;2619;47.868;11.892;2022-09-09T10:02:45;3.30;;;1.80;;
5199;SDS011;2619;47.868;11.892;2022-09-09T10:05:13;2.93;;;1.70;;
5199;SDS011;2619;47.868;11.892;2022-09-09T10:07:42;3.83;;;1.60;;
5199;SDS011;2619;47.868;11.892;2022-09-09T10:10:20;2.20;;;1.10;;
5199;SDS011;2619;47.868;11.892;2022-09-09T10:18:25;3.50;;;1.63;;
5199;SDS011;2619;47.868;11.892;2022-09-09T10:21:07;2.20;;;1.10;;
5199;SDS011;2619;47.868;11.892;2022-09-09T10:29:18;2.10;;;1.00;;
5199;SDS011;2619;47.868;11.892;2022-09-09T10:34:54;4.03;;;1.20;;
5199;SDS011;2619;47.868;11.892;2022-09-09T10:37:35;2.63;;;1.60;;
5199;SDS011;2619;47.868;11.892;2022-09-09T10:49:16;2.00;;;0.97;;
5199;SDS011;2619;47.868;11.892;2022-09-09T10:56:49;2.83;;;1.10;;
5199;SDS011;2619;47.868;11.892;2022-09-09T10:59:22;3.40;;;1.07;;
5199;SDS011;2619;47.868;11.892;2022-09-09T11:01:58;2.37;;;0.90;;
5199;SDS011;2619;47.868;11.892;2022-09-09T11:04:33;3.70;;;1.10;;
5199;SDS011;2619;47.868;11.892;2022-09-09T11:07:02;3.70;;;1.20;;
5199;SDS011;2619;47.868;11.892;2022-09-09T11:09:35;2.20;;;1.20;;
5199;SDS011;2619;47.868;11.892;2022-09-09T11:12:05;5.37;;;1.10;;
5199;SDS011;2619;47.868;11.892;2022-09-09T11:14:44;2.63;;;1.00;;
5199;SDS011;2619;47.868;11.892;2022-09-09T11:17:21;3.10;;;1.20;;
5199;SDS011;2619;47.868;11.892;2022-09-09T11:19:49;2.63;;;1.10;;
5199;SDS011;2619;47.868;11.892;2022-09-09T11:27:26;4.00;;;0.83;;
5199;SDS011;2619;47.868;11.892;2022-09-09T11:35:26;2.30;;;0.90;;
5199;SDS011;2619;47.868;11.892;2022-09-09T11:38:21;3.20;;;1.30;;
5199;SDS011;2619;47.868;11.892;2022-09-09T11:41:02;2.70;;;1.00;;
5199;SDS011;2619;47.868;11.892;2022-09-09T11:43:52;2.63;;;1.23;;
5199;SDS011;2619;47.868;11.892;2022-09-09T11:46:18;5.00;;;1.10;;
5199;SDS011;2619;47.868;11.892;2022-09-09T11:49:03;2.77;;;0.93;;
5199;SDS011;2619;47.868;11.892;2022-09-09T11:51:31;2.47;;;0.90;;
5199;SDS011;2619;47.868;11.892;2022-09-09T11:54:02;4.57;;;1.20;;
5199;SDS011;2619;47.868;11.892;2022-09-09T11:56:47;2.40;;;0.80;;
5199;SDS011;2619;47.868;11.892;2022-09-09T12:09:38;2.90;;;1.90;;
5199;SDS011;2619;47.868;11.892;2022-09-09T12:12:22;2.57;;;1.03;;
5199;SDS011;2619;47.868;11.892;2022-09-09T12:17:22;3.00;;;0.93;;
5199;SDS011;2619;47.868;11.892;2022-09-09T12:28:18;4.53;;;0.80;;
5199;SDS011;2619;47.868;11.892;2022-09-09T12:30:52;1.97;;;0.70;;
5199;SDS011;2619;47.868;11.892;2022-09-09T12:33:42;1.70;;;0.80;;
5199;SDS011;2619;47.868;11.892;2022-09-09T12:36:21;2.10;;;1.10;;
5199;SDS011;2619;47.868;11.892;2022-09-09T12:38:52;1.70;;;0.63;;
5199;SDS011;2619;47.868;11.892;2022-09-09T12:41:20;1.90;;;0.83;;
5199;SDS011;2619;47.868;11.892;2022-09-09T12:43:48;3.23;;;1.00;;
5199;SDS011;2619;47.868;11.892;2022-09-09T12:46:21;2.70;;;0.87;;
5199;SDS011;2619;47.868;11.892;2022-09-09T12:48:59;2.63;;;1.40;;
5199;SDS011;2619;47.868;11.892;2022-09-09T12:51:28;2.83;;;1.07;;
5199;SDS011;2619;47.868;11.892;2022-09-09T12:53:56;2.20;;;0.80;;
5199;SDS011;2619;47.868;11.892;2022-09-09T12:56:27;2.47;;;0.77;;
5199;SDS011;2619;47.868;11.892;2022-09-09T12:58:56;1.90;;;0.73;;
5199;SDS011;2619;47.868;11.892;2022-09-09T13:01:30;2.23;;;0.67;;
5199;SDS011;2619;47.868;11.892;2022-09-09T13:03:58;3.93;;;0.83;;
5199;SDS011;2619;47.868;11.892;2022-09-09T13:06:25;1.80;;;0.70;;
5199;SDS011;2619;47.868;11.892;2022-09-09T13:08:55;3.30;;;2.90;;
5199;SDS011;2619;47.868;11.892;2022-09-09T13:14:04;1.90;;;0.70;;
5199;SDS011;2619;47.868;11.892;2022-09-09T13:16:32;1.70;;;0.60;;
5199;SDS011;2619;47.868;11.892;2022-09-09T13:19:00;2.57;;;0.77;;
5199;SDS011;2619;47.868;11.892;2022-09-09T13:21:35;2.07;;;0.83;;
5199;SDS011;2619;47.868;11.892;2022-09-09T13:24:04;1.60;;;0.70;;
5199;SDS011;2619;47.868;11.892;2022-09-09T13:26:59;2.00;;;0.70;;
5199;SDS011;2619;47.868;11.892;2022-09-09T13:29:31;1.87;;;0.60;;
5199;SDS011;2619;47.868;11.892;2022-09-09T13:32:04;1.70;;;0.60;;
5199;SDS011;2619;47.868;11.892;2022-09-09T13:34:32;1.70;;;0.70;;
5199;SDS011;2619;47.868;11.892;2022-09-09T13:37:06;4.33;;;1.00;;
5199;SDS011;2619;47.868;11.892;2022-09-09T13:39:50;1.80;;;0.80;;
5199;SDS011;2619;47.868;11.892;2022-09-09T13:42:25;2.80;;;1.20;;
5199;SDS011;2619;47.868;11.892;2022-09-09T13:44:52;2.83;;;0.70;;
5199;SDS011;2619;47.868;11.892;2022-09-09T13:47:21;2.40;;;0.80;;
5199;SDS011;2619;47.868;11.892;2022-09-09T13:49:52;3.00;;;0.80;;
5199;SDS011;2619;47.868;11.892;2022-09-09T13:52:19;2.00;;;0.80;;
5199;SDS011;2619;47.868;11.892;2022-09-09T13:54:51;1.70;;;0.57;;
5199;SDS011;2619;47.868;11.892;2022-09-09T13:59:47;1.70;;;0.73;;
5199;SDS011;2619;47.868;11.892;2022-09-09T14:02:14;4.60;;;1.63;;
5199;SDS011;2619;47.868;11.892;2022-09-09T14:04:41;1.53;;;0.60;;
5199;SDS011;2619;47.868;11.892;2022-09-09T14:07:11;2.40;;;1.33;;
5199;SDS011;2619;47.868;11.892;2022-09-09T14:09:39;2.57;;;1.13;;
5199;SDS011;2619;47.868;11.892;2022-09-09T14:12:05;1.80;;;0.90;;
5199;SDS011;2619;47.868;11.892;2022-09-09T14:14:34;1.73;;;0.70;;
5199;SDS011;2619;47.868;11.892;2022-09-09T14:17:00;2.60;;;0.60;;
5199;SDS011;2619;47.868;11.892;2022-09-09T14:19:25;2.47;;;0.60;;
5199;SDS011;2619;47.868;11.892;2022-09-09T14:21:51;3.43;;;0.70;;
5199;SDS011;2619;47.868;11.892;2022-09-09T14:24:16;1.60;;;0.60;;
5199;SDS011;2619;47.868;11.892;2022-09-09T14:26:42;1.80;;;0.60;;
5199;SDS011;2619;47.868;11.892;2022-09-09T14:29:08;1.50;;;0.60;;
5199;SDS011;2619;47.868;11.892;2022-09-09T14:31:33;1.97;;;0.90;;
5199;SDS011;2619;47.868;11.892;2022-09-09T14:33:59;4.50;;;1.20;;
5199;SDS011;2619;47.868;11.892;2022-09-09T14:36:25;2.63;;;0.63;;
5199;SDS011;2619;47.868;11.892;2022-09-09T14:38:50;2.70;;;1.40;;
5199;SDS011;2619;47.868;11.892;2022-09-09T14:41:17;2.97;;;1.10;;
5199;SDS011;2619;47.868;11.892;2022-09-09T14:43:44;2.57;;;0.67;;
5199;SDS011;2619;47.868;11.892;2022-09-09T14:46:12;2.20;;;0.70;;
5199;SDS011;2619;47.868;11.892;2022-09-09T14:48:39;2.83;;;1.00;;
5199;SDS011;2619;47.868;11.892;2022-09-09T14:51:09;1.50;;;0.50;;
5199;SDS011;2619;47.868;11.892;2022-09-09T14:53:37;2.73;;;0.60;;
5199;SDS011;2619;47.868;11.892;2022-09-09T14:56:12;2.57;;;1.33;;
5199;SDS011;2619;47.868;11.892;2022-09-09T14:58:42;2.00;;;0.70;;
5199;SDS011;2619;47.868;11.892;2022-09-09T15:01:09;2.90;;;1.07;;
5199;SDS011;2619;47.868;11.892;2022-09-09T15:03:42;2.70;;;0.80;;
5199;SDS011;2619;47.868;11.892;2022-09-09T15:06:14;2.30;;;0.90;;
5199;SDS011;2619;47.868;11.892;2022-09-09T15:08:41;2.37;;;0.70;;
5199;SDS011;2619;47.868;11.892;2022-09-09T15:11:08;1.90;;;0.80;;
5199;SDS011;2619;47.868;11.892;2022-09-09T15:13:35;1.70;;;0.60;;
5199;SDS011;2619;47.868;11.892;2022-09-09T15:16:08;2.00;;;0.87;;
5199;SDS011;2619;47.868;11.892;2022-09-09T15:18:36;2.37;;;0.90;;
5199;SDS011;2619;47.868;11.892;2022-09-09T15:21:05;1.90;;;0.70;;
5199;SDS011;2619;47.868;11.892;2022-09-09T15:23:31;1.90;;;0.80;;
5199;SDS011;2619;47.868;11.892;2022-09-09T15:25:57;2.17;;;0.90;;
5199;SDS011;2619;47.868;11.892;2022-09-09T15:28:23;2.70;;;0.93;;
5199;SDS011;2619;47.868;11.892;2022-09-09T15:30:49;1.70;;;0.67;;
5199;SDS011;2619;47.868;11.892;2022-09-09T15:33:17;2.10;;;0.80;;
5199;SDS011;2619;47.868;11.892;2022-09-09T15:35:43;4.13;;;0.77;;
5199;SDS011;2619;47.868;11.892;2022-09-09T15:38:08;1.60;;;0.60;;
5199;SDS011;2619;47.868;11.892;2022-09-09T15:40:34;2.73;;;0.80;;
5199;SDS011;2619;47.868;11.892;2022-09-09T15:43:00;4.03;;;1.10;;
5199;SDS011;2619;47.868;11.892;2022-09-09T15:45:27;6.10;;;0.83;;
5199;SDS011;2619;47.868;11.892;2022-09-09T15:47:52;3.20;;;1.13;;
5199;SDS011;2619;47.868;11.892;2022-09-09T15:50:18;2.13;;;0.87;;
5199;SDS011;2619;47.868;11.892;2022-09-09T15:52:43;2.60;;;1.10;;
5199;SDS011;2619;47.868;11.892;2022-09-09T15:55:09;3.67;;;1.20;;
5199;SDS011;2619;47.868;11.892;2022-09-09T15:57:35;2.77;;;1.00;;
5199;SDS011;2619;47.868;11.892;2022-09-09T16:00:01;2.80;;;1.20;;
5199;SDS011;2619;47.868;11.892;2022-09-09T16:02:31;2.40;;;1.27;;
5199;SDS011;2619;47.868;11.892;2022-09-09T16:04:57;2.93;;;1.20;;
5199;SDS011;2619;47.868;11.892;2022-09-09T16:07:23;3.90;;;1.30;;
5199;SDS011;2619;47.868;11.892;2022-09-09T16:09:49;4.00;;;1.50;;
5199;SDS011;2619;47.868;11.892;2022-09-09T16:12:17;4.20;;;1.40;;
5199;SDS011;2619;47.868;11.892;2022-09-09T16:14:43;2.37;;;1.20;;
5199;SDS011;2619;47.868;11.892;2022-09-09T16:17:10;3.40;;;1.23;;
5199;SDS011;2619;47.868;11.892;2022-09-09T16:19:36;3.50;;;1.53;;
5199;SDS011;2619;47.868;11.892;2022-09-09T16:22:02;3.70;;;1.50;;
5199;SDS011;2619;47.868;11.892;2022-09-09T16:24:29;3.37;;;1.20;;
5199;SDS011;2619;47.868;11.892;2022-09-09T16:26:55;3.90;;;1.50;;
5199;SDS011;2619;47.868;11.892;2022-09-09T16:29:21;2.73;;;1.20;;
5199;SDS011;2619;47.868;11.892;2022-09-09T16:31:47;3.40;;;1.57;;
5199;SDS011;2619;47.868;11.892;2022-09-09T16:34:14;4.13;;;1.20;;
5199;SDS011;2619;47.868;11.892;2022-09-09T16:36:41;3.27;;;1.40;;
5199;SDS011;2619;47.868;11.892;2022-09-09T16:39:09;2.83;;;1.33;;
5199;SDS011;2619;47.868;11.892;2022-09-09T16:41:37;3.80;;;1.47;;
5199;SDS011;2619;47.868;11.892;2022-09-09T16:44:04;5.57;;;1.73;;
5199;SDS011;2619;47.868;11.892;2022-09-09T16:46:32;2.70;;;1.30;;
5199;SDS011;2619;47.868;11.892;2022-09-09T16:49:00;3.50;;;1.57;;
5199;SDS011;2619;47.868;11.892;2022-09-09T16:51:32;3.33;;;1.60;;
5199;SDS011;2619;47.868;11.892;2022-09-09T16:54:02;6.33;;;1.77;;
5199;SDS011;2619;47.868;11.892;2022-09-09T16:56:31;2.70;;;1.53;;
5199;SDS011;2619;47.868;11.892;2022-09-09T16:59:00;5.83;;;1.50;;
5199;SDS011;2619;47.868;11.892;2022-09-09T17:01:28;2.60;;;1.60;;
5199;SDS011;2619;47.868;11.892;2022-09-09T17:03:56;3.53;;;2.10;;
5199;SDS011;2619;47.868;11.892;2022-09-09T17:06:23;3.30;;;1.87;;
5199;SDS011;2619;47.868;11.892;2022-09-09T17:08:53;3.83;;;1.77;;
5199;SDS011;2619;47.868;11.892;2022-09-09T17:11:20;2.23;;;1.40;;
5199;SDS011;2619;47.868;11.892;2022-09-09T17:13:46;3.17;;;1.90;;
5199;SDS011;2619;47.868;11.892;2022-09-09T17:16:13;2.43;;;1.43;;
5199;SDS011;2619;47.868;11.892;2022-09-09T17:18:40;2.27;;;1.47;;
5199;SDS011;2619;47.868;11.892;2022-09-09T17:21:07;2.83;;;1.47;;
5199;SDS011;2619;47.868;11.892;2022-09-09T17:23:39;3.13;;;1.60;;
5199;SDS011;2619;47.868;11.892;2022-09-09T17:26:06;3.23;;;1.50;;
5199;SDS011;2619;47.868;11.892;2022-09-09T17:28:35;3.30;;;1.70;;
5199;SDS011;2619;47.868;11.892;2022-09-09T17:31:04;3.50;;;1.73;;
5199;SDS011;2619;47.868;11.892;2022-09-09T17:33:32;4.20;;;2.20;;
5199;SDS011;2619;47.868;11.892;2022-09-09T17:36:00;6.93;;;3.50;;
5199;SDS011;2619;47.868;11.892;2022-09-09T17:38:27;4.60;;;2.80;;